createdAt,value
2018-04-11T00:01:03.382Z,94934.59
2018-04-11T00:03:31.363Z,94917.92
2018-04-11T00:05:59.374Z,94927.61
2018-04-11T00:08:27.352Z,94927.41
2018-04-11T00:10:55.385Z,94929.98
2018-04-11T00:13:23.651Z,94921.78
2018-04-11T00:15:51.637Z,94896.14
2018-04-11T00:18:19.680Z,94902.98
2018-04-11T00:20:47.649Z,94903.12
2018-04-11T00:23:15.699Z,94904.02
2018-04-11T00:25:43.723Z,94901.42
2018-04-11T00:28:11.730Z,94900.45
2018-04-11T00:30:39.720Z,94897.92
2018-04-11T00:33:07.737Z,94903.44
2018-04-11T00:35:35.753Z,94901.23
2018-04-11T00:38:03.739Z,94889.70
2018-04-11T00:40:32.088Z,94886.27
2018-04-11T00:43:00.180Z,94883.88
2018-04-11T00:45:28.155Z,94880.44
2018-04-11T00:47:56.111Z,94872.50
2018-04-11T00:50:24.113Z,94868.64
2018-04-11T00:53:03.724Z,94870.77
2018-04-11T00:55:31.827Z,94868.09
2018-04-11T00:57:59.889Z,94866.66
2018-04-11T01:00:27.829Z,94880.55
2018-04-11T01:02:56.542Z,94880.59
2018-04-11T01:05:24.609Z,94876.69
2018-04-11T01:07:52.607Z,94887.76
2018-04-11T01:10:20.616Z,94887.62
2018-04-11T01:12:48.618Z,94889.77
2018-04-11T01:15:16.613Z,94893.14
2018-04-11T01:17:44.700Z,94891.38
2018-04-11T01:20:12.667Z,94894.50
2018-04-11T01:22:40.685Z,94891.31
2018-04-11T01:25:08.658Z,94888.22
2018-04-11T01:27:36.633Z,94885.30
2018-04-11T01:30:04.682Z,94886.36
2018-04-11T01:32:32.676Z,94881.64
2018-04-11T01:35:00.871Z,94885.49
2018-04-11T01:37:28.957Z,94894.71
2018-04-11T01:39:56.962Z,94893.72
2018-04-11T01:42:25.165Z,94897.00
2018-04-11T01:44:53.119Z,94899.40
2018-04-11T01:47:21.148Z,94895.90
2018-04-11T01:49:49.143Z,94888.58
2018-04-11T01:52:17.163Z,94884.03
2018-04-11T01:54:45.088Z,94888.77
2018-04-11T01:57:13.116Z,94893.53
2018-04-11T01:59:41.116Z,94893.70
2018-04-11T02:02:09.445Z,94889.20
2018-04-11T02:04:37.755Z,94893.09
2018-04-11T02:07:06.561Z,94893.95
2018-04-11T02:09:35.153Z,94886.96
2018-04-11T02:12:03.511Z,94876.28
2018-04-11T02:14:31.602Z,94885.16
2018-04-11T02:16:59.586Z,94885.98
2018-04-11T02:19:27.588Z,94889.55
2018-04-11T02:21:55.602Z,94883.50
2018-04-11T02:24:23.637Z,94869.47
2018-04-11T02:26:51.745Z,94867.09
2018-04-11T02:29:19.808Z,94869.04
2018-04-11T02:31:47.811Z,94874.61
2018-04-11T02:34:15.972Z,94878.84
2018-04-11T02:36:44.018Z,94871.00
2018-04-11T02:39:11.959Z,94867.07
2018-04-11T02:41:39.975Z,94856.47
2018-04-11T02:44:08.129Z,94865.02
2018-04-11T02:46:36.131Z,94880.75
2018-04-11T02:49:04.103Z,94887.83
2018-04-11T02:51:32.128Z,94872.97
2018-04-11T02:54:00.121Z,94871.69
2018-04-11T02:56:28.129Z,94879.97
2018-04-11T02:58:56.117Z,94881.64
2018-04-11T03:01:24.133Z,94888.27
2018-04-11T03:03:52.109Z,94889.28
2018-04-11T03:06:20.077Z,94890.70
2018-04-11T03:08:48.185Z,94877.55
2018-04-11T03:11:16.163Z,94881.83
2018-04-11T03:13:44.215Z,94898.71
2018-04-11T03:16:12.203Z,94904.55
2018-04-11T03:18:40.181Z,94913.84
2018-04-11T03:21:08.293Z,94917.02
2018-04-11T03:23:36.401Z,94914.58
2018-04-11T03:26:04.565Z,94921.73
2018-04-11T03:28:32.581Z,94934.97
2018-04-11T03:31:00.638Z,94930.23
2018-04-11T03:33:28.627Z,94919.88
2018-04-11T03:35:56.621Z,94910.75
2018-04-11T03:38:24.593Z,94908.36
2018-04-11T03:40:52.593Z,94904.86
2018-04-11T03:43:20.596Z,94903.11
2018-04-11T03:45:49.082Z,94918.28
2018-04-11T03:48:17.119Z,94925.56
2018-04-11T03:50:45.138Z,94921.20
2018-04-11T03:53:13.242Z,94933.14
2018-04-11T03:55:41.243Z,94930.08
2018-04-11T03:58:09.294Z,94924.02
2018-04-11T04:00:37.223Z,94926.69
2018-04-11T04:03:05.166Z,94926.23
2018-04-11T04:05:33.210Z,94925.78
2018-04-11T04:08:01.805Z,94916.87
2018-04-11T04:10:30.382Z,94915.61
2018-04-11T04:12:59.034Z,94911.47
2018-04-11T04:15:38.983Z,94916.56
2018-04-11T04:18:18.616Z,94908.60
2018-04-11T04:20:47.157Z,94916.63
2018-04-11T04:23:15.197Z,94924.28
2018-04-11T04:25:43.215Z,94932.89
2018-04-11T04:28:11.251Z,94934.06
2018-04-11T04:30:39.287Z,94938.26
2018-04-11T04:33:07.311Z,94932.54
2018-04-11T04:35:35.386Z,94920.31
2018-04-11T04:38:03.481Z,94924.52
2018-04-11T04:40:31.555Z,94935.53
2018-04-11T04:42:59.644Z,94932.77
2018-04-11T04:45:28.159Z,94943.83
2018-04-11T04:47:56.726Z,94951.00
2018-04-11T04:50:24.703Z,94959.73
2018-04-11T04:52:52.762Z,94953.99
2018-04-11T04:55:20.754Z,94961.42
2018-04-11T04:57:48.758Z,94961.23
2018-04-11T05:00:16.733Z,94947.78
2018-04-11T05:02:44.860Z,94964.42
2018-04-11T05:05:12.790Z,94970.87
2018-04-11T05:07:40.848Z,94968.68
2018-04-11T05:10:10.159Z,94957.03
2018-04-11T05:12:38.204Z,94937.77
2018-04-11T05:15:06.281Z,94933.34
2018-04-11T05:17:34.311Z,94945.09
2018-04-11T05:20:02.432Z,94954.96
2018-04-11T05:22:30.410Z,94978.47
2018-04-11T05:24:58.559Z,94980.19
2018-04-11T05:27:26.530Z,94978.47
2018-04-11T05:29:55.171Z,94966.60
2018-04-11T05:32:23.206Z,94953.91
2018-04-11T05:34:51.225Z,94944.22
2018-04-11T05:37:19.219Z,94917.84
2018-04-11T05:39:47.240Z,94935.33
2018-04-11T05:42:15.217Z,94967.47
2018-04-11T05:44:43.247Z,94986.98
2018-04-11T05:47:11.222Z,94977.88
2018-04-11T05:49:39.550Z,94961.15
2018-04-11T05:52:07.548Z,94967.03
2018-04-11T05:54:35.537Z,94979.16
2018-04-11T05:57:03.457Z,94986.72
2018-04-11T05:59:31.452Z,94982.20
2018-04-11T06:01:59.481Z,94980.32
2018-04-11T06:04:27.446Z,94974.20
2018-04-11T06:06:55.478Z,94962.34
2018-04-11T06:09:23.507Z,94941.33
2018-04-11T06:11:51.467Z,94976.88
2018-04-11T06:14:19.501Z,94980.30
2018-04-11T06:16:47.601Z,94978.63
2018-04-11T06:19:15.582Z,94988.02
2018-04-11T06:21:43.541Z,94998.44
2018-04-11T06:24:11.527Z,95006.61
2018-04-11T06:26:39.527Z,95007.95
2018-04-11T06:29:07.505Z,95003.53
2018-04-11T06:31:35.516Z,95003.30
2018-04-11T06:34:03.453Z,94986.78
2018-04-11T06:36:31.454Z,94986.48
2018-04-11T06:38:59.461Z,94977.83
2018-04-11T06:41:27.515Z,94982.50
2018-04-11T06:43:55.595Z,94987.56
2018-04-11T06:46:23.626Z,94996.98
2018-04-11T06:48:51.624Z,94992.66
2018-04-11T06:51:20.104Z,94986.71
2018-04-11T06:53:48.038Z,94985.95
2018-04-11T06:56:16.163Z,94982.08
2018-04-11T06:58:44.189Z,94975.64
2018-04-11T07:01:12.183Z,94976.36
2018-04-11T07:03:40.187Z,94986.23
2018-04-11T07:06:08.194Z,94990.88
2018-04-11T07:08:36.163Z,94995.01
2018-04-11T07:11:04.233Z,94995.55
2018-04-11T07:13:32.297Z,94981.89
2018-04-11T07:16:00.257Z,94965.44
2018-04-11T07:18:28.216Z,94963.61
2018-04-11T07:20:56.230Z,94974.30
2018-04-11T07:23:24.275Z,94964.35
2018-04-11T07:25:52.287Z,94956.48
2018-04-11T07:28:20.326Z,94964.98
2018-04-11T07:30:48.282Z,94974.02
2018-04-11T07:33:16.329Z,94972.83
2018-04-11T07:35:44.263Z,94968.77
2018-04-11T07:38:12.302Z,94967.17
2018-04-11T07:40:40.304Z,94976.63
2018-04-11T07:43:08.327Z,94968.88
2018-04-11T07:45:36.293Z,94981.06
2018-04-11T07:48:04.435Z,94984.09
2018-04-11T07:50:32.427Z,94987.03
2018-04-11T07:53:00.934Z,94979.02
2018-04-11T07:55:28.894Z,94978.17
2018-04-11T07:57:56.924Z,94986.41
2018-04-11T08:00:24.940Z,94983.88
2018-04-11T08:02:52.955Z,94982.17
2018-04-11T08:05:20.977Z,94974.39
2018-04-11T08:07:48.993Z,94985.77
2018-04-11T08:10:17.069Z,94981.36
2018-04-11T08:12:45.035Z,94980.52
2018-04-11T08:15:13.525Z,94977.82
2018-04-11T08:17:41.498Z,94982.36
2018-04-11T08:20:09.568Z,94985.41
2018-04-11T08:22:37.577Z,94968.83
2018-04-11T08:25:05.591Z,94968.77
2018-04-11T08:27:33.602Z,94970.93
2018-04-11T08:30:01.633Z,94978.91
2018-04-11T08:32:29.606Z,94971.02
2018-04-11T08:34:57.711Z,94973.05
2018-04-11T08:37:25.663Z,94973.88
2018-04-11T08:39:53.679Z,94965.75
2018-04-11T08:42:21.690Z,94973.16
2018-04-11T08:44:49.730Z,94967.05
2018-04-11T08:47:17.750Z,94966.70
2018-04-11T08:49:45.868Z,94967.05
2018-04-11T08:52:13.805Z,94958.23
2018-04-11T08:54:42.396Z,94959.34
2018-04-11T08:57:10.382Z,94962.95
2018-04-11T08:59:38.364Z,94957.03
2018-04-11T09:02:06.406Z,94953.92
2018-04-11T09:04:34.418Z,94945.20
2018-04-11T09:07:02.400Z,94945.53
2018-04-11T09:09:30.567Z,94949.60
2018-04-11T09:11:58.565Z,94937.80
2018-04-11T09:14:26.544Z,94933.53
2018-04-11T09:16:54.553Z,94933.13
2018-04-11T09:19:22.596Z,94935.70
2018-04-11T09:21:50.622Z,94924.40
2018-04-11T09:24:18.653Z,94922.86
2018-04-11T09:26:46.714Z,94927.84
2018-04-11T09:29:14.658Z,94928.23
2018-04-11T09:31:42.653Z,94930.17
2018-04-11T09:34:10.725Z,94939.92
2018-04-11T09:36:38.658Z,94944.08
2018-04-11T09:39:06.775Z,94933.10
2018-04-11T09:41:34.791Z,94920.89
2018-04-11T09:44:02.905Z,94902.47
2018-04-11T09:46:31.039Z,94888.31
2018-04-11T09:48:58.997Z,94901.12
2018-04-11T09:51:27.050Z,94905.23
2018-04-11T09:53:55.005Z,94904.79
2018-04-11T09:56:23.371Z,94898.05
2018-04-11T09:58:51.403Z,94892.19
2018-04-11T10:01:19.436Z,94888.78
2018-04-11T10:03:47.392Z,94892.45
2018-04-11T10:06:15.338Z,94886.25
2018-04-11T10:08:43.443Z,94899.12
2018-04-11T10:11:11.490Z,94898.23
2018-04-11T10:13:39.593Z,94900.07
2018-04-11T10:16:07.675Z,94885.58
2018-04-11T10:18:35.855Z,94881.03
2018-04-11T10:21:03.878Z,94887.07
2018-04-11T10:23:31.972Z,94890.11
2018-04-11T10:25:59.944Z,94895.62
2018-04-11T10:28:27.956Z,94899.99
2018-04-11T10:30:55.888Z,94901.81
2018-04-11T10:33:23.962Z,94888.39
2018-04-11T10:35:52.004Z,94884.70
2018-04-11T10:38:20.019Z,94888.98
2018-04-11T10:40:47.982Z,94885.21
2018-04-11T10:43:15.980Z,94879.06
2018-04-11T10:45:44.000Z,94876.11
2018-04-11T10:48:12.045Z,94875.11
2018-04-11T10:50:40.095Z,94877.63
2018-04-11T10:53:08.142Z,94874.70
2018-04-11T10:55:36.165Z,94856.56
2018-04-11T10:58:04.496Z,94857.36
2018-04-11T11:00:32.480Z,94852.16
2018-04-11T11:03:00.499Z,94849.20
2018-04-11T11:05:28.533Z,94835.62
2018-04-11T11:07:56.428Z,94825.20
2018-04-11T11:10:24.478Z,94839.58
2018-04-11T11:12:52.651Z,94838.12
2018-04-11T11:15:20.625Z,94831.22
2018-04-11T11:17:48.646Z,94832.87
2018-04-11T11:20:16.723Z,94825.37
2018-04-11T11:22:44.861Z,94817.21
2018-04-11T11:25:13.019Z,94824.30
2018-04-11T11:27:41.041Z,94819.59
2018-04-11T11:30:09.021Z,94815.45
2018-04-11T11:32:37.022Z,94814.49
2018-04-11T11:35:05.200Z,94811.73
2018-04-11T11:37:33.262Z,94798.28
2018-04-11T11:40:01.337Z,94795.03
2018-04-11T11:42:29.355Z,94798.17
2018-04-11T11:44:57.377Z,94793.59
2018-04-11T11:47:25.270Z,94783.74
2018-04-11T11:49:53.346Z,94783.80
2018-04-11T11:52:21.317Z,94783.62
2018-04-11T11:54:49.337Z,94790.27
2018-04-11T11:57:17.373Z,94780.66
2018-04-11T11:59:45.845Z,94779.56
2018-04-11T12:02:13.839Z,94772.72
2018-04-11T12:04:41.921Z,94767.00
2018-04-11T12:07:09.946Z,94758.78
2018-04-11T12:09:37.923Z,94765.25
2018-04-11T12:12:05.928Z,94751.17
2018-04-11T12:14:33.941Z,94747.77
2018-04-11T12:17:01.979Z,94753.02
2018-04-11T12:19:29.978Z,94748.33
2018-04-11T12:21:58.040Z,94747.02
2018-04-11T12:24:26.016Z,94747.50
2018-04-11T12:26:54.087Z,94747.97
2018-04-11T12:29:22.198Z,94743.50
2018-04-11T12:31:50.220Z,94740.66
2018-04-11T12:34:18.204Z,94734.39
2018-04-11T12:36:46.176Z,94731.67
2018-04-11T12:39:14.161Z,94721.73
2018-04-11T12:41:42.222Z,94724.79
2018-04-11T12:44:10.199Z,94714.55
2018-04-11T12:46:38.209Z,94707.58
2018-04-11T12:49:06.238Z,94704.86
2018-04-11T12:51:34.248Z,94706.77
2018-04-11T12:54:02.311Z,94711.34
2018-04-11T12:56:30.319Z,94699.55
2018-04-11T12:58:58.339Z,94700.36
2018-04-11T13:01:26.760Z,94703.29
2018-04-11T13:03:54.793Z,94692.73
2018-04-11T13:06:22.729Z,94694.56
2018-04-11T13:08:50.689Z,94691.11
2018-04-11T13:11:18.728Z,94686.34
2018-04-11T13:13:46.691Z,94690.00
2018-04-11T13:16:14.725Z,94673.66
2018-04-11T13:18:42.767Z,94683.05
2018-04-11T13:21:10.830Z,94676.16
2018-04-11T13:23:38.868Z,94681.61
2018-04-11T13:26:06.862Z,94677.56
2018-04-11T13:28:34.858Z,94673.95
2018-04-11T13:31:02.813Z,94671.91
2018-04-11T13:33:30.862Z,94661.84
2018-04-11T13:35:58.820Z,94667.26
2018-04-11T13:38:26.830Z,94665.72
2018-04-11T13:40:54.845Z,94664.05
2018-04-11T13:43:22.845Z,94666.18
2018-04-11T13:45:51.310Z,94657.95
2018-04-11T13:48:19.350Z,94654.45
2018-04-11T13:50:47.314Z,94657.37
2018-04-11T13:53:15.386Z,94654.59
2018-04-11T13:55:43.433Z,94651.61
2018-04-11T13:58:11.380Z,94658.84
2018-04-11T14:00:39.414Z,94655.86
2018-04-11T14:03:07.868Z,94649.61
2018-04-11T14:05:35.909Z,94661.83
2018-04-11T14:08:03.920Z,94643.84
2018-04-11T14:10:32.031Z,94643.17
2018-04-11T14:13:00.073Z,94636.59
2018-04-11T14:15:28.143Z,94644.54
2018-04-11T14:17:56.140Z,94641.70
2018-04-11T14:20:24.045Z,94652.20
2018-04-11T14:22:52.035Z,94655.30
2018-04-11T14:25:20.012Z,94654.34
2018-04-11T14:27:48.067Z,94646.63
2018-04-11T14:30:16.107Z,94657.45
2018-04-11T14:32:44.117Z,94650.81
2018-04-11T14:35:12.091Z,94649.97
2018-04-11T14:37:40.192Z,94640.52
2018-04-11T14:40:08.282Z,94564.22
2018-04-11T14:42:36.314Z,94641.63
2018-04-11T14:45:04.523Z,94640.54
2018-04-11T14:47:32.574Z,94634.55
2018-04-11T14:50:00.657Z,94631.75
2018-04-11T14:52:28.643Z,94625.05
2018-04-11T14:54:57.638Z,94622.18
2018-04-11T14:57:25.692Z,94631.49
2018-04-11T14:59:53.714Z,94624.02
2018-04-11T15:02:21.701Z,94622.88
2018-04-11T15:04:50.014Z,94623.42
2018-04-11T15:07:18.063Z,94619.84
2018-04-11T15:09:46.028Z,94632.11
2018-04-11T15:12:14.136Z,94614.91
2018-04-11T15:14:42.101Z,94623.30
2018-04-11T15:17:10.156Z,94629.48
2018-04-11T15:19:38.203Z,94625.95
2018-04-11T15:22:06.215Z,94634.09
2018-04-11T15:24:34.236Z,94633.09
2018-04-11T15:27:02.245Z,94636.53
2018-04-11T15:29:30.253Z,94641.66
2018-04-11T15:31:58.252Z,94637.44
2018-04-11T15:34:26.234Z,94645.60
2018-04-11T15:36:54.338Z,94645.39
2018-04-11T15:39:22.367Z,94647.52
2018-04-11T15:41:50.434Z,94647.62
2018-04-11T15:44:18.396Z,94642.84
2018-04-11T15:46:46.401Z,94647.98
2018-04-11T15:49:14.382Z,94647.75
2018-04-11T15:51:42.417Z,94642.13
2018-04-11T15:54:10.403Z,94640.72
2018-04-11T15:56:38.405Z,94648.55
2018-04-11T15:59:06.379Z,94644.33
2018-04-11T16:01:34.423Z,94649.75
2018-04-11T16:04:02.493Z,94657.22
2018-04-11T16:06:30.854Z,94656.52
2018-04-11T16:08:58.831Z,94659.55
2018-04-11T16:11:26.832Z,94660.94
2018-04-11T16:13:54.837Z,94661.92
2018-04-11T16:16:22.805Z,94663.13
2018-04-11T16:18:50.797Z,94659.50
2018-04-11T16:21:18.825Z,94665.09
2018-04-11T16:23:46.844Z,94666.08
2018-04-11T16:26:14.854Z,94662.62
2018-04-11T16:28:42.882Z,94661.38
2018-04-11T16:31:10.894Z,94661.16
2018-04-11T16:33:38.859Z,94665.08
2018-04-11T16:36:06.868Z,94667.36
2018-04-11T16:38:34.896Z,94667.25
2018-04-11T16:41:02.898Z,94668.20
2018-04-11T16:43:30.856Z,94673.39
2018-04-11T16:45:58.906Z,94678.43
2018-04-11T16:48:26.829Z,94680.78
2018-04-11T16:50:54.845Z,94680.52
2018-04-11T16:53:22.954Z,94684.72
2018-04-11T16:55:51.045Z,94691.98
2018-04-11T16:58:19.051Z,94692.80
2018-04-11T17:00:47.045Z,94691.47
2018-04-11T17:03:15.062Z,94698.03
2018-04-11T17:05:43.139Z,94696.43
2018-04-11T17:08:11.567Z,94699.53
2018-04-11T17:10:39.675Z,94706.95
2018-04-11T17:13:07.960Z,94714.98
2018-04-11T17:15:36.199Z,94714.57
2018-04-11T17:18:04.324Z,94711.19
2018-04-11T17:20:44.111Z,94717.84
2018-04-11T17:23:24.158Z,94717.09
2018-04-11T17:26:04.062Z,94730.49
2018-04-11T17:28:43.928Z,94731.51
2018-04-11T17:34:17.098Z,94742.63
2018-04-11T17:36:45.198Z,94751.25
2018-04-11T17:39:13.178Z,94759.22
2018-04-11T17:41:41.248Z,94762.80
2018-04-11T17:44:09.403Z,94767.34
2018-04-11T17:46:37.408Z,94770.20
2018-04-11T17:49:05.437Z,94770.48
2018-04-11T17:51:33.415Z,94779.61
2018-04-11T17:54:01.424Z,94782.00
2018-04-11T17:56:29.550Z,94783.95
2018-04-11T17:58:57.797Z,94792.67
2018-04-11T18:01:26.126Z,94793.34
2018-04-11T18:03:54.476Z,94800.17
2018-04-11T18:06:23.072Z,94799.69
2018-04-11T18:08:52.408Z,94799.55
2018-04-11T18:11:20.933Z,94800.83
2018-04-11T18:13:49.676Z,94807.62
2018-04-11T18:16:18.110Z,94813.70
2018-04-11T18:18:46.240Z,94822.03
2018-04-11T18:21:14.273Z,94819.00
2018-04-11T18:23:42.286Z,94819.11
2018-04-11T18:26:10.345Z,94824.19
2018-04-11T18:28:38.374Z,94826.77
2018-04-11T18:31:06.382Z,94831.34
2018-04-11T18:33:34.564Z,94833.98
2018-04-11T18:36:02.594Z,94841.87
2018-04-11T18:38:30.621Z,94841.67
2018-04-11T18:40:58.608Z,94845.66
2018-04-11T18:43:26.622Z,94852.30
2018-04-11T18:45:54.752Z,94855.49
2018-04-11T18:48:22.783Z,94853.59
2018-04-11T18:50:50.793Z,94852.66
2018-04-11T18:53:18.764Z,94855.87
2018-04-11T18:55:46.730Z,94860.78
2018-04-11T18:58:14.805Z,94864.30
2018-04-11T19:00:42.876Z,94871.61
2018-04-11T19:03:11.017Z,94874.85
2018-04-11T19:05:39.137Z,94867.85
2018-04-11T19:08:07.159Z,94867.94
2018-04-11T19:10:35.466Z,94873.71
2018-04-11T19:13:03.529Z,94877.44
2018-04-11T19:15:31.546Z,94870.85
2018-04-11T19:17:59.631Z,94878.06
2018-04-11T19:20:27.709Z,94875.16
2018-04-11T19:22:55.769Z,94887.28
2018-04-11T19:25:23.770Z,94887.56
2018-04-11T19:27:51.798Z,94894.66
2018-04-11T19:30:19.898Z,94892.89
2018-04-11T19:32:47.987Z,94893.67
2018-04-11T19:35:15.977Z,94892.13
2018-04-11T19:37:44.067Z,94897.91
2018-04-11T19:40:12.083Z,94892.68
2018-04-11T19:42:40.119Z,94890.58
2018-04-11T19:45:08.300Z,94886.18
2018-04-11T19:47:36.286Z,94889.69
2018-04-11T19:50:04.532Z,94889.66
2018-04-11T19:52:32.525Z,94892.52
2018-04-11T19:55:00.558Z,94887.25
2018-04-11T19:57:28.519Z,94889.23
2018-04-11T19:59:56.576Z,94889.58
2018-04-11T20:02:24.544Z,94892.59
2018-04-11T20:04:52.561Z,94894.73
2018-04-11T20:07:20.610Z,94894.65
2018-04-11T20:09:48.654Z,94896.25
2018-04-11T20:12:16.884Z,94905.80
2018-04-11T20:14:44.896Z,94902.83
2018-04-11T20:17:12.911Z,94906.38
2018-04-11T20:19:40.935Z,94909.16
2018-04-11T20:22:08.964Z,94906.70
2018-04-11T20:24:36.999Z,94905.93
2018-04-11T20:27:04.980Z,94912.29
2018-04-11T20:29:33.085Z,94906.64
2018-04-11T20:32:01.078Z,94909.61
2018-04-11T20:34:29.061Z,94908.45
2018-04-11T20:36:57.103Z,94921.02
2018-04-11T20:39:25.098Z,94914.19
2018-04-11T20:41:53.134Z,94918.91
2018-04-11T20:44:21.312Z,94913.00
2018-04-11T20:46:49.331Z,94914.50
2018-04-11T20:49:17.371Z,94917.25
2018-04-11T20:51:45.418Z,94918.03
2018-04-11T20:54:13.395Z,94914.90
2018-04-11T20:56:41.365Z,94911.43
2018-04-11T20:59:09.388Z,94909.16
2018-04-11T21:01:37.298Z,94910.97
2018-04-11T21:04:05.239Z,94915.36
2018-04-11T21:06:33.235Z,94910.33
2018-04-11T21:09:01.225Z,94915.91
2018-04-11T21:11:29.227Z,94917.80
2018-04-11T21:13:57.623Z,94929.14
2018-04-11T21:16:25.622Z,94923.94
2018-04-11T21:18:53.725Z,94929.52
2018-04-11T21:21:21.760Z,94924.02
2018-04-11T21:23:49.691Z,94934.16
2018-04-11T21:26:17.656Z,94928.58
2018-04-11T21:28:45.618Z,94932.91
2018-04-11T21:31:13.662Z,94929.69
2018-04-11T21:33:41.658Z,94927.39
2018-04-11T21:36:09.731Z,94937.38
2018-04-11T21:38:37.817Z,94939.50
2018-04-11T21:41:05.905Z,94939.17
2018-04-11T21:43:33.953Z,94943.44
2018-04-11T21:46:01.978Z,94944.62
2018-04-11T21:48:30.050Z,94934.67
2018-04-11T21:50:58.064Z,94941.87
2018-04-11T21:53:26.009Z,94941.83
2018-04-11T21:55:54.070Z,94936.42
2018-04-11T21:58:22.072Z,94936.83
2018-04-11T22:00:50.046Z,94936.88
2018-04-11T22:03:18.046Z,94930.73
2018-04-11T22:05:46.038Z,94925.28
2018-04-11T22:08:14.059Z,94923.84
2018-04-11T22:10:42.096Z,94928.64
2018-04-11T22:13:10.083Z,94933.34
2018-04-11T22:15:38.411Z,94931.42
2018-04-11T22:18:06.409Z,94933.61
2018-04-11T22:20:34.514Z,94930.39
2018-04-11T22:23:02.526Z,94930.20
2018-04-11T22:25:30.538Z,94929.94
2018-04-11T22:27:58.567Z,94935.42
2018-04-11T22:30:26.494Z,94939.61
2018-04-11T22:32:54.501Z,94931.61
2018-04-11T22:35:22.469Z,94938.89
2018-04-11T22:37:50.401Z,94936.56
2018-04-11T22:40:18.405Z,94937.81
2018-04-11T22:42:46.452Z,94944.41
2018-04-11T22:45:14.464Z,94946.75
2018-04-11T22:47:42.999Z,94946.02
2018-04-11T22:50:11.383Z,94873.56
2018-04-11T22:52:39.718Z,94944.56
2018-04-11T22:55:08.441Z,94941.74
2018-04-11T22:57:36.812Z,94941.16
2018-04-11T23:00:05.319Z,94942.76
2018-04-11T23:02:33.789Z,94948.78
2018-04-11T23:05:02.356Z,94948.57
2018-04-11T23:07:30.847Z,94950.69
2018-04-11T23:09:59.526Z,94944.92
2018-04-11T23:12:28.415Z,94946.96
2018-04-11T23:14:56.864Z,94950.53
2018-04-11T23:17:25.699Z,94949.45
2018-04-11T23:19:54.371Z,94949.94
2018-04-11T23:22:22.989Z,94942.58
2018-04-11T23:24:51.653Z,94949.73
2018-04-11T23:27:20.137Z,94945.91
2018-04-11T23:29:48.493Z,94943.49
2018-04-11T23:32:17.028Z,94940.84
2018-04-11T23:34:45.557Z,94935.82
2018-04-11T23:37:13.605Z,94930.66
2018-04-11T23:39:41.642Z,94933.55
2018-04-11T23:42:09.717Z,94934.00
2018-04-11T23:44:37.728Z,94928.53
2018-04-11T23:47:05.771Z,94934.20
2018-04-11T23:49:33.791Z,94928.62
2018-04-11T23:52:01.802Z,94931.87
2018-04-11T23:54:29.853Z,94922.23
2018-04-11T23:56:57.879Z,94920.00
2018-04-11T23:59:25.965Z,94927.94
